Greenbrier, Arkansas
Current Conditions -  °F | °C
As of 11:58 PM on Wednesday 28 Jan 2015 (Local Time) from KLRF Reporting Station
Clear Clear  
Wind Chill: 53°   Ceiling: Unl
Heat Index: 53°   Visibility: 10mi
Dew Point: 42°   Wind: 2mph
Humidity: 65%   Direction: 180°S
Pressure: 30.02"   Gusts: NA
Location:  35.23°N, 92.39°W
Report Text: KLRF 290558Z AUTO 18002KT 10SM CLR 12/05 A3002 RMK AO2 SLP169 T01160053 10137 20103 401701015 55004
Loading
Personal Weather Stations






























Interactive Weather Map New forecast layout! Learn more

10-Day Weather Forecast

Advertisements
Track Severe Weather on mobile